createdAt,value
2019-02-18T00:00:35.457Z,45.58
2019-02-18T00:05:39.256Z,45.64
2019-02-18T00:10:43.097Z,45.74
2019-02-18T00:15:46.920Z,45.43
2019-02-18T00:20:50.737Z,45.43
2019-02-18T00:25:54.544Z,45.58
2019-02-18T00:30:58.351Z,45.94
2019-02-18T00:36:02.164Z,45.77
2019-02-18T00:41:06.003Z,45.91
2019-02-18T00:46:09.827Z,45.91
2019-02-18T00:51:13.644Z,46.13
2019-02-18T00:56:17.481Z,45.83
2019-02-18T01:01:21.325Z,45.88
2019-02-18T01:06:25.137Z,45.88
2019-02-18T01:11:28.956Z,46.03
2019-02-18T01:16:32.800Z,46.29
2019-02-18T01:21:36.600Z,46.52
2019-02-18T01:26:40.401Z,46.36
2019-02-18T01:31:44.209Z,46.11
2019-02-18T01:36:48.018Z,46.56
2019-02-18T01:41:54.169Z,46.46
2019-02-18T01:47:00.094Z,46.46
2019-02-18T01:52:03.922Z,46.33
2019-02-18T01:57:07.763Z,46.59
2019-02-18T02:02:11.600Z,46.79
2019-02-18T02:07:15.433Z,46.67
2019-02-18T02:12:19.263Z,46.67
2019-02-18T02:17:23.091Z,46.48
2019-02-18T02:22:26.933Z,46.55
2019-02-18T02:27:30.737Z,46.70
2019-02-18T02:32:34.570Z,46.51
2019-02-18T02:37:38.405Z,46.51
2019-02-18T02:42:42.237Z,46.65
2019-02-18T02:47:46.075Z,46.65
2019-02-18T02:52:49.921Z,46.73
2019-02-18T02:57:53.730Z,46.99
2019-02-18T03:02:57.545Z,46.99
2019-02-18T03:08:01.380Z,46.77
2019-02-18T03:13:05.200Z,47.22
2019-02-18T03:18:09.031Z,47.26
2019-02-18T03:23:12.850Z,47.20
2019-02-18T03:28:42.096Z,47.21
2019-02-18T03:33:58.970Z,47.10
2019-02-18T03:39:04.662Z,47.24
2019-02-18T03:44:08.468Z,47.40
2019-02-18T03:49:12.267Z,47.40
2019-02-18T03:54:16.079Z,47.49
2019-02-18T03:59:19.903Z,47.52
2019-02-18T04:04:23.730Z,47.14
2019-02-18T04:09:27.520Z,47.92
2019-02-18T04:14:31.366Z,47.33
2019-02-18T04:19:35.183Z,47.90
2019-02-18T04:24:39.004Z,47.90
2019-02-18T04:29:42.823Z,48.23
2019-02-18T04:34:46.659Z,48.23
2019-02-18T04:39:50.452Z,47.20
2019-02-18T04:44:54.251Z,47.20
2019-02-18T04:49:58.084Z,47.17
2019-02-18T04:55:01.944Z,46.83
2019-02-18T05:00:08.433Z,46.83
2019-02-18T05:05:12.015Z,46.83
2019-02-18T05:10:15.825Z,47.07
2019-02-18T05:15:19.628Z,47.07
2019-02-18T05:20:23.455Z,46.91
2019-02-18T05:25:27.232Z,46.93
2019-02-18T05:30:31.049Z,46.93
2019-02-18T05:35:34.867Z,46.80
2019-02-18T05:40:38.683Z,46.50
2019-02-18T05:45:42.509Z,46.53
2019-02-18T05:50:46.323Z,46.64
2019-02-18T05:55:50.147Z,46.39
2019-02-18T06:00:53.947Z,46.08
2019-02-18T06:05:57.747Z,46.08
2019-02-18T06:11:01.562Z,46.24
2019-02-18T06:16:05.372Z,46.08
2019-02-18T06:21:09.177Z,46.12
2019-02-18T06:26:13.003Z,46.12
2019-02-18T06:31:16.808Z,45.83
2019-02-18T06:36:20.637Z,46.25
2019-02-18T06:41:24.448Z,46.25
2019-02-18T06:46:31.445Z,46.03
2019-02-18T06:51:35.244Z,46.35
2019-02-18T06:56:49.528Z,45.89
2019-02-18T07:02:10.388Z,46.58
2019-02-18T07:07:20.449Z,46.58
2019-02-18T07:12:27.852Z,46.14
2019-02-18T07:17:31.618Z,46.14
2019-02-18T07:22:35.416Z,46.04
2019-02-18T07:27:39.203Z,46.09
2019-02-18T07:32:43.227Z,46.09
2019-02-18T07:37:47.067Z,46.23
2019-02-18T07:42:50.872Z,47.13
2019-02-18T07:47:54.657Z,47.21
2019-02-18T07:52:58.441Z,46.95
2019-02-18T07:58:02.221Z,46.59
2019-02-18T08:03:06.003Z,46.66
2019-02-18T08:08:09.782Z,46.38
2019-02-18T08:13:13.588Z,46.81
2019-02-18T08:18:17.367Z,46.81
2019-02-18T08:23:21.162Z,47.09
2019-02-18T08:28:24.952Z,47.21
2019-02-18T08:33:28.741Z,46.97
2019-02-18T08:38:32.551Z,46.97
2019-02-18T08:43:36.336Z,46.86
2019-02-18T08:48:40.129Z,46.25
2019-02-18T08:53:43.926Z,46.25
2019-02-18T08:58:47.736Z,46.75
2019-02-18T09:03:51.532Z,46.66
2019-02-18T09:08:55.306Z,46.90
2019-02-18T09:13:59.103Z,46.52
2019-02-18T09:19:02.891Z,46.52
2019-02-18T09:24:20.151Z,46.43
2019-02-18T09:29:23.927Z,46.61
2019-02-18T09:34:27.715Z,46.90
2019-02-18T09:39:31.846Z,46.90
2019-02-18T09:44:35.716Z,31.94
2019-02-18T09:49:39.587Z,31.94
2019-02-18T09:54:43.404Z,30.44
2019-02-18T09:59:47.225Z,30.44
2019-02-18T10:04:51.062Z,30.44
2019-02-18T10:09:54.875Z,30.44
2019-02-18T10:14:58.693Z,31.14
2019-02-18T10:20:02.491Z,31.54
2019-02-18T10:25:07.526Z,31.54
2019-02-18T10:30:11.760Z,31.34
2019-02-18T10:35:15.603Z,31.52
2019-02-18T10:40:19.391Z,31.83
2019-02-18T10:45:23.216Z,32.57
2019-02-18T10:50:27.022Z,32.57
2019-02-18T10:55:30.982Z,31.78
2019-02-18T11:00:34.960Z,32.46
2019-02-18T11:05:38.767Z,32.46
2019-02-18T11:10:42.586Z,32.23
2019-02-18T11:15:46.395Z,31.37
2019-02-18T11:20:50.211Z,32.09
2019-02-18T11:25:54.015Z,31.25
2019-02-18T11:30:57.827Z,30.85
2019-02-18T11:36:01.653Z,30.85
2019-02-18T11:41:05.452Z,30.91
2019-02-18T11:46:09.259Z,30.30
2019-02-18T11:51:13.334Z,30.49
2019-02-18T11:56:17.158Z,30.88
2019-02-18T12:01:21.093Z,30.88
2019-02-18T12:06:24.906Z,29.61
2019-02-18T12:11:37.923Z,29.62
2019-02-18T12:16:34.330Z,31.80
2019-02-18T12:21:38.282Z,32.46
2019-02-18T12:26:42.098Z,32.46
2019-02-18T12:31:45.916Z,32.64
2019-02-18T12:36:49.759Z,33.77
2019-02-18T12:41:53.564Z,34.08
2019-02-18T12:46:57.392Z,34.29
2019-02-18T12:52:01.581Z,34.27
2019-02-18T12:57:05.408Z,35.65
2019-02-18T13:02:09.220Z,35.65
2019-02-18T13:07:13.315Z,35.30
2019-02-18T13:12:17.204Z,35.30
2019-02-18T13:17:20.992Z,36.84
2019-02-18T13:22:24.798Z,36.77
2019-02-18T13:27:28.800Z,36.77
2019-02-18T13:32:32.611Z,37.22
2019-02-18T13:37:36.414Z,37.76
2019-02-18T13:42:40.216Z,38.18
2019-02-18T13:47:44.021Z,38.18
2019-02-18T13:52:47.829Z,38.43
2019-02-18T13:57:51.639Z,38.45
2019-02-18T14:02:55.465Z,38.45
2019-02-18T14:07:59.271Z,38.40
2019-02-18T14:13:03.094Z,38.51
2019-02-18T14:18:06.931Z,39.01
2019-02-18T14:23:11.227Z,38.84
2019-02-18T14:28:15.055Z,38.84
2019-02-18T14:33:18.873Z,39.58
2019-02-18T14:38:22.697Z,39.88
2019-02-18T14:43:26.491Z,39.88
2019-02-18T14:48:30.690Z,40.32
2019-02-18T14:53:34.489Z,40.41
2019-02-18T14:58:38.330Z,40.39
2019-02-18T15:03:42.157Z,40.39
2019-02-18T15:08:45.978Z,40.66
2019-02-18T15:13:49.790Z,40.60
2019-02-18T15:18:53.602Z,41.02
2019-02-18T15:23:57.413Z,40.97
2019-02-18T15:29:01.214Z,41.63
2019-02-18T15:34:05.038Z,41.63
2019-02-18T15:39:08.856Z,42.34
2019-02-18T15:44:12.693Z,42.34
2019-02-18T15:49:16.887Z,42.77
2019-02-18T15:54:20.716Z,42.77
2019-02-18T15:59:24.527Z,42.84
2019-02-18T16:04:28.332Z,42.14
2019-02-18T16:09:32.127Z,42.14
2019-02-18T16:14:36.330Z,41.39
2019-02-18T16:19:40.159Z,41.12
2019-02-18T16:24:43.974Z,41.12
2019-02-18T16:29:48.614Z,40.85
2019-02-18T16:34:52.505Z,41.38
2019-02-18T16:39:57.085Z,40.96
2019-02-18T16:45:00.939Z,40.26
2019-02-18T16:50:05.173Z,40.71
2019-02-18T16:55:10.109Z,41.32
2019-02-18T17:00:29.029Z,41.69
2019-02-18T17:05:32.896Z,41.13
2019-02-18T17:10:36.692Z,41.13
2019-02-18T17:15:40.591Z,40.28
2019-02-18T17:20:44.431Z,39.60
2019-02-18T17:25:48.514Z,39.38
2019-02-18T17:30:52.339Z,39.72
2019-02-18T17:35:56.184Z,38.94
2019-02-18T17:41:01.482Z,38.94
2019-02-18T17:46:05.429Z,38.96
2019-02-18T17:51:09.247Z,39.69
2019-02-18T17:56:13.055Z,39.69
2019-02-18T18:01:16.880Z,39.17
2019-02-18T18:06:20.867Z,39.13
2019-02-18T18:11:24.703Z,39.84
2019-02-18T18:16:28.523Z,39.84
2019-02-18T18:21:32.335Z,39.85
2019-02-18T18:26:36.142Z,40.01
2019-02-18T18:31:39.945Z,40.01
2019-02-18T18:36:43.770Z,39.88
2019-02-18T18:41:47.570Z,39.71
2019-02-18T18:46:51.416Z,39.94
2019-02-18T18:51:55.618Z,40.24
2019-02-18T18:56:59.435Z,40.33
2019-02-18T19:02:03.321Z,40.23
2019-02-18T19:07:07.149Z,39.94
2019-02-18T19:12:10.965Z,39.74
2019-02-18T19:17:14.777Z,40.38
2019-02-18T19:22:18.604Z,40.38
2019-02-18T19:27:22.796Z,39.98
2019-02-18T19:32:26.627Z,40.72
2019-02-18T19:37:30.479Z,40.56
2019-02-18T19:42:34.273Z,40.21
2019-02-18T19:47:38.060Z,40.31
2019-02-18T19:52:41.843Z,40.31
2019-02-18T19:57:45.647Z,40.51
2019-02-18T20:02:49.825Z,40.09
2019-02-18T20:07:53.655Z,40.05
2019-02-18T20:12:57.457Z,40.68
2019-02-18T20:18:01.239Z,40.43
2019-02-18T20:23:05.048Z,40.43
2019-02-18T20:28:08.832Z,40.53
2019-02-18T20:33:12.607Z,41.04
2019-02-18T20:38:16.430Z,41.19
2019-02-18T20:43:20.210Z,40.67
2019-02-18T20:48:23.991Z,40.73
2019-02-18T20:53:27.809Z,41.37
2019-02-18T20:58:31.610Z,40.55
2019-02-18T21:03:35.707Z,41.02
2019-02-18T21:08:39.570Z,41.27
2019-02-18T21:13:43.362Z,41.76
2019-02-18T21:18:47.156Z,41.76
2019-02-18T21:23:51.032Z,41.68
2019-02-18T21:28:54.867Z,42.11
2019-02-18T21:33:58.669Z,41.90
2019-02-18T21:39:04.108Z,42.20
2019-02-18T21:44:07.981Z,42.04
2019-02-18T21:49:14.074Z,42.04
2019-02-18T21:54:17.922Z,42.13
2019-02-18T21:59:21.716Z,42.13
2019-02-18T22:04:25.989Z,42.13
2019-02-18T22:09:29.783Z,42.46
2019-02-18T22:14:35.707Z,42.46
2019-02-18T22:19:39.117Z,42.61
2019-02-18T22:24:42.973Z,42.61
2019-02-18T22:29:47.054Z,43.36
2019-02-18T22:34:50.856Z,43.36
2019-02-18T22:39:54.640Z,42.99
2019-02-18T22:44:58.471Z,43.62
2019-02-18T22:50:02.507Z,43.49
2019-02-18T22:55:07.067Z,43.64
2019-02-18T23:00:18.427Z,43.50
2019-02-18T23:05:22.292Z,43.50
2019-02-18T23:10:26.092Z,43.67
2019-02-18T23:15:29.866Z,43.56
2019-02-18T23:20:33.826Z,44.00
2019-02-18T23:25:37.628Z,43.50
2019-02-18T23:30:41.417Z,44.17
2019-02-18T23:35:45.310Z,43.56
2019-02-18T23:40:49.126Z,43.56
2019-02-18T23:45:52.958Z,43.79
2019-02-18T23:50:56.762Z,43.89
2019-02-18T23:56:00.563Z,43.72
